Pecq, Belgium
Current Conditions -  °F | °C
As of 11:30 AM on Saturday 22 Nov 2014 (Local Time) from LFQQ Reporting Station
Clear Clear  
Wind Chill: 50°   Ceiling: Unl
Heat Index: 50°   Visibility: 5mi
Dew Point: 48°   Wind: 13mph
Humidity: 94%   Direction: 160°SSE
Pressure: 30"   Gusts: NA
Location:  50.69°N, 3.34°E
Report Text: LFQQ 221030Z 16011KT 8000 NSC 10/09 Q1016 NOSIG
Loading
Personal Weather Stations






























Interactive Weather Map New forecast layout! Learn more

10-Day Weather Forecast

Advertisements
Track Severe Weather on mobile